CDT,Max TemperatureF,Mean TemperatureF,Min TemperatureF,Max Dew PointF,MeanDew PointF,Min DewpointF,Max Humidity, Mean Humidity, Min Humidity, Max Sea Level PressureIn, Mean Sea Level PressureIn, Min Sea Level PressureIn, Max VisibilityMiles, Mean VisibilityMiles, Min VisibilityMiles, Max Wind SpeedMPH, Mean Wind SpeedMPH, Max Gust SpeedMPH,PrecipitationIn, CloudCover, Events, WindDirDegrees
2013-3-1,35,19,1,25,8,-6,85,66,35,30.38,30.35,30.29,10,10,10,8,0,,0.00,2,,5
2013-3-2,30,12,-5,16,5,-9,85,65,44,30.32,30.20,30.06,10,10,10,12,3,,0.00,4,,168
2013-3-3,35,25,15,12,9,3,73,51,33,30.05,29.95,29.88,10,10,10,16,7,21,0.00,6,,125
2013-3-4,26,24,21,21,16,3,93,75,37,30.02,29.91,29.86,10,4,0,20,11,25,0.03,8,Snow,101
2013-3-5,26,22,17,21,18,14,100,87,69,30.35,30.20,30.01,10,5,1,15,8,16,0.01,7,Snow,9
2013-3-6,30,16,3,23,10,0,86,75,47,30.41,30.36,30.29,10,9,2,9,4,,0.00,4,Snow,360
2013-3-7,37,18,0,18,10,-4,92,71,45,30.32,30.24,30.17,10,10,10,14,7,20,0.00,0,,127
2013-3-8,32,26,21,23,20,16,93,80,69,30.22,30.17,30.05,10,7,4,14,8,,0.00,7,,197
2013-3-9,37,29,21,30,25,18,100,87,74,30.05,29.86,29.77,10,4,1,15,3,18,0.04,8,Snow,335
2013-3-10,28,14,-2,19,12,-8,93,79,55,30.14,30.07,29.95,10,9,3,21,14,26,0.00,5,Snow,339
2013-3-11,30,13,-4,16,5,-8,92,74,44,30.05,29.88,29.79,10,10,10,0,0,,0.00,3,,-1
2013-3-12,26,14,3,16,9,1,92,80,54,30.25,30.04,29.84,10,9,2,17,7,23,0.00,3,Snow,312
2013-3-13,24,8,-9,16,3,-13,92,76,50,30.33,30.25,30.10,10,10,7,9,1,,0.00,2,Snow,188
2013-3-14,35,26,17,27,20,14,93,81,60,30.11,30.05,30.02,10,8,1,13,6,,0.02,3,Snow,198
2013-3-15,21,13,3,18,12,0,93,81,68,30.07,30.02,29.95,10,7,0,15,11,22,0.02,6,Snow,25
2013-3-16,12,-2,-18,0,-8,-22,92,74,53,30.26,30.17,30.07,10,10,2,12,5,,0.00,1,Snow,305
2013-3-17,19,-2,-23,14,-5,-31,86,68,45,30.26,30.00,29.67,10,8,1,21,6,30,0.03,5,Snow,131
2013-3-18,26,14,3,25,13,0,93,85,73,29.86,29.58,29.39,10,3,0,29,14,37,0.10,8,Snow,284
2013-3-19,12,2,-7,0,-6,-13,92,68,52,30.22,30.07,29.87,10,9,4,20,12,26,0.00,1,,297
2013-3-20,15,3,-9,1,-6,-15,85,68,48,30.25,30.20,30.14,10,10,7,20,11,24,0.00,0,,303
2013-3-21,28,5,-18,9,-6,-26,92,66,40,30.14,30.09,30.05,10,10,10,9,1,,0.00,0,,348
2013-3-22,33,11,-11,12,1,-17,85,68,38,30.10,30.07,30.04,10,10,10,10,1,,0.00,0,,337
2013-3-23,35,18,0,18,9,-2,92,73,44,30.16,30.13,30.09,10,10,10,9,1,,0.00,3,,309
2013-3-24,30,22,14,19,16,10,93,77,55,30.17,30.13,30.10,10,10,10,18,5,22,0.00,8,Snow,355
2013-3-25,32,18,1,18,15,0,92,76,55,30.30,30.24,30.17,10,10,7,17,9,21,0.00,4,Snow,334
2013-3-26,33,16,-2,16,5,-6,100,75,48,30.31,30.29,30.27,10,7,0,6,0,,0.00,2,Fog-Snow,307
2013-3-27,44,22,0,19,9,-6,86,63,31,30.31,30.29,30.28,10,10,10,6,0,,0.00,0,,255
2013-3-28,48,32,17,32,20,12,86,64,34,30.29,30.26,30.22,10,10,10,7,1,,0.00,6,,125
2013-3-29,48,34,19,36,26,16,86,71,50,30.24,30.13,29.99,10,8,5,6,1,,0.00,2,,156
2013-3-30,42,35,28,32,28,25,100,81,57,29.98,29.91,29.84,10,5,0,10,2,,0.01,6,Fog-Thunderstorm,264
2013-3-31,30,20,10,28,16,7,93,76,55,30.16,29.98,29.79,10,9,4,26,12,33,0.00,6,Snow,313